Mountainair, NM (87036)

9:40 PM MDT on October 25, 2014 (GMT -0600)
Red Bluff | Change Station
CLOSE
Current Station
Personal Weather Station
Location: Mountainair, NM
Elevation: 6729 ft
Nearby Weather Stations

Elev 6729 ft 34.53 °N, 106.32 °W | Updated 9 minutes ago

Clear
Clear
49.6 °F
Feels Like 48 °F
N
4.7
Wind Variable Wind from West

Today
High -- | Low -- °F
--% Chance of Precip.
Yesterday
High -- | Low -- °F
Precip. -- in
7:18 AM 6:18 PM
Waxing Crescent, 5% visible
Pressure 30.25 in
Visibility 10.0 miles
Clouds Clear
Windchill 48 °F
Dew Point 36 °F
Humidity 60%
Rainfall 0.00 in
Snow Depth Not available.
UV 0 out of 12
Pollen 3.60 out of 12
Air Quality Not available.
Flu Activity Not available.
METAR K0E0 260335Z AUTO 00000KT 10SM CLR 07/M02 A3025 RMK AO2 T00731016

More Conditions Fewer Conditions

Pressure 30.25 in
Visibility 10.0 miles
Clouds Clear
Windchill 48 °F
Dew Point 36 °F
Humidity 60%
Rainfall 0.00 in
Snow Depth Not available.
UV 0 out of 12
Pollen 3.60 out of 12
Air Quality Not available.
Flu Activity Not available.
METAR K0E0 260335Z AUTO 00000KT 10SM CLR 07/M02 A3025 RMK AO2 T00731016

More Conditions Fewer Conditions

10-Day Weather Forecast

Almanac

Astronomy

Oct. 25, 2014 Rise Set
Actual Time 7:18 AM MDT 6:18 PM MDT
Civil Twilight 6:53 AM MDT 6:44 PM MDT
Nautical Twilight 6:23 AM MDT 7:13 PM MDT
Astronomical Twilight 5:54 AM MDT 7:42 PM MDT
Moon 8:57 AM MDT (10/25) 7:47 PM MDT (10/25)
Length of Visible Light 11h 50m
Length of Day
10h 59m
Tomorrow will be 1m 58s shorter.
Waxing Crescent, 5% of the Moon is Illuminated
Today
Waxing Crescent
Oct 30
First Quarter
Nov 6
Full
Nov 14
Last Quarter
Nov 22
New

Today's Extremes

State Highs State Lows

Community

WunderPhotos

Upload Photos

1,765,095 photos uploaded!

Nearby

Snow Depth

Station Depth Elevation
Sierra Blanca 1 in 10280 ft
Elk Cabin 0 in 8210 ft
Wesner Springs 0 in 11120 ft
Quemazon 0 in 9500 ft
Senorita Divide #2 0 in 8600 ft

Earthquake Activity

City Distance Mag. Time & Date
No recent earthquake activity has been reported nearby.
Minimum magnitude displayed is 2.5.

Coastal Water Temperatures

Place Temperature
No Stations Reporting

Nearby Weather Stations